Aérodrome :
LOGIN :

S'inscrire | Disclaimer

   EN    FR    IT 

 










Légende :    VFR   VFR Marginal   IFR   IFR Intensif   IFR Très Intensif
Visi : 
Plafond : 
>= 8 km
>= 3000ft
5 à 8 km
1000 à 3000 ft
1500m à 5 km
500 à 1000 ft
800 à 1500m
200 à 500 ft
< 800m
< 200 ft
Symboles :   Orages  Brouillard  Fortes neiges  Fortes précipitations  Vent > 20 kt
SIGMETs :   Divers  Orages  Givrage  Turbulence  Onde Orograph.  Cendres Volcan.






- Altitude de l'aérodrome : 313 ft
- Code IATA : LEH


LFOH - Le Havre Octeville

DERNIER METAR :
  • 232130Z AUTO 26017KT 9999 BKN026 BKN031 BKN038 14/10 Q1003

METARs EXPIRÉS :
  • 232100Z AUTO 26017KT 230V290 9999 SCT028 SCT036 BKN062 14/09 Q1003
  • 232030Z AUTO 26019KT 9999 SCT032 SCT042 BKN060 14/08 Q1003
  • 232000Z AUTO 26020KT 9999 BKN033 BKN066 15/08 Q1003
  • 231930Z AUTO 27018KT 9999 FEW023 SCT050 OVC060 15/09 Q1002
  • 231900Z AUTO 26020KT 9999 BKN022 BKN028 OVC039 15/11 Q1002

TAF TAF LFOH
Valide du 23 à 12h jusqu'au 24 à 12h UTC


231100Z 2312/2412 19010KT 9999 BKN030
TEMPO 2312/2318 4000 SHRA BKN030TCU
PROB40
TEMPO 2312/2318 19020G35KT 2000 TSRA BKN012 BKN030CB
FM231800 27020G35KT 9999 SCT030
BECMG 2400/2402 20015KT
TEMPO 2407/2412 20020G30KT 3000 SHRA BKN025TCU
ATIS : +33 2 35 54 64 93



MET'MAP, la Météo Aéronautique d'un coup d'oeil ! - Copyright ORBIFLY Décembre 2007 - Disclaimer

ORBIFLY MET'MAP TEAM :

Programmation & Développement : Alexandra Zaïnal
Sur une idée originale de : Baudouin d'Aumeries
Assistance à la programmation : Marc-Olivier Méhu
Soutien technique & logistique : Manuel Goepfert

Contact : metmap@orbifly.com




SOURCES & CREDITS :

   NOAA